Time;durP1;ratioP1;P1;durP2;ratioP2;P2;SDS_P1;SDS_P2;PMS_P1;PMS_P2;Temp;Humidity;BMP_temperature;BMP_pressure;BME280_temperature;BME280_humidity;BME280_pressure;Samples;Min_cycle;Max_cycle;Signal;HPM_P1;HPM_P2
2021/04/28 00:02:04;;;;;;;4.30;2.02;;;9.20;57.90;;;;;;1790164;78;21666;-74
2021/04/28 00:04:32;;;;;;;4.17;2.27;;;9.10;58.30;;;;;;1789341;78;21123;-74
2021/04/28 00:07:03;;;;;;;3.40;1.80;;;9.10;58.50;;;;;;1788528;78;21032;-74
2021/04/28 00:09:29;;;;;;;4.42;2.15;;;9.00;58.40;;;;;;1789411;78;21146;-73
2021/04/28 00:11:57;;;;;;;6.28;1.90;;;9.00;58.70;;;;;;1790061;78;21179;-74
2021/04/28 00:14:25;;;;;;;7.40;2.00;;;9.00;59.00;;;;;;1786987;78;21139;-75
2021/04/28 00:16:52;;;;;;;6.20;2.10;;;8.90;59.30;;;;;;1788984;78;21114;-74
2021/04/28 00:19:20;;;;;;;4.08;2.02;;;8.90;59.30;;;;;;1786007;78;21124;-74
2021/04/28 00:21:47;;;;;;;3.22;1.87;;;9.00;59.50;;;;;;1790967;78;21316;-74
2021/04/28 00:24:15;;;;;;;3.25;1.72;;;8.90;59.80;;;;;;1794388;78;21108;-74
2021/04/28 00:26:42;;;;;;;5.00;2.00;;;8.90;59.80;;;;;;1791049;78;21728;-74
2021/04/28 00:29:10;;;;;;;3.90;1.80;;;8.90;59.80;;;;;;1790300;78;21198;-74
2021/04/28 00:31:37;;;;;;;5.22;2.20;;;8.80;59.90;;;;;;1790312;78;21132;-74
2021/04/28 00:34:05;;;;;;;3.75;1.80;;;8.80;60.70;;;;;;1789678;78;21127;-75
2021/04/28 00:36:32;;;;;;;5.75;1.95;;;8.80;60.00;;;;;;1789426;78;21601;-74
2021/04/28 00:39:00;;;;;;;2.50;1.70;;;8.80;60.50;;;;;;1789176;78;21126;-74
2021/04/28 00:41:27;;;;;;;3.67;2.33;;;8.80;61.30;;;;;;1791273;77;21119;-74
2021/04/28 00:43:55;;;;;;;5.55;2.30;;;8.80;61.90;;;;;;1789777;78;21238;-75
2021/04/28 00:46:23;;;;;;;4.05;2.55;;;8.70;61.90;;;;;;1788327;78;21201;-75
2021/04/28 00:48:50;;;;;;;4.67;2.22;;;8.70;61.60;;;;;;1786591;78;21581;-75
2021/04/28 00:51:18;;;;;;;6.78;2.42;;;8.70;62.20;;;;;;1788924;78;21154;-74
2021/04/28 00:53:46;;;;;;;2.77;2.02;;;8.70;62.20;;;;;;1788479;78;21205;-74
2021/04/28 00:56:14;;;;;;;4.62;2.55;;;8.70;62.70;;;;;;1786995;78;21579;-74
2021/04/28 00:58:41;;;;;;;3.52;2.17;;;8.70;62.80;;;;;;1790066;78;21150;-75
2021/04/28 01:01:09;;;;;;;5.53;2.25;;;8.60;62.80;;;;;;1791401;78;21150;-75
2021/04/28 01:03:36;;;;;;;5.47;2.30;;;8.50;63.80;;;;;;1786743;78;21107;-74
2021/04/28 01:06:07;;;;;;;7.30;2.20;;;8.50;64.00;;;;;;1788536;78;21646;-75
2021/04/28 01:08:35;;;;;;;4.53;2.35;;;8.50;64.20;;;;;;1788437;78;21114;-74
2021/04/28 01:11:04;;;;;;;4.60;2.35;;;8.50;65.50;;;;;;1788254;78;21119;-74
2021/04/28 01:13:33;;;;;;;6.15;2.00;;;8.40;65.20;;;;;;1791550;78;21117;-74
2021/04/28 01:16:01;;;;;;;4.45;2.40;;;8.50;65.70;;;;;;1790677;78;21674;-74
2021/04/28 01:18:28;;;;;;;5.03;2.00;;;8.40;65.50;;;;;;1787535;78;21178;-74
2021/04/28 01:20:56;;;;;;;5.10;2.58;;;8.40;65.60;;;;;;1788026;78;21067;-74
2021/04/28 01:23:23;;;;;;;3.50;2.20;;;8.30;65.50;;;;;;1791490;78;21226;-75
2021/04/28 01:25:51;;;;;;;3.17;2.15;;;8.20;65.90;;;;;;1792185;78;21150;-75
2021/04/28 01:28:24;;;;;;;6.53;2.30;;;8.10;66.50;;;;;;1788363;78;21071;-74
2021/04/28 01:31:10;;;;;;;3.22;2.10;;;8.10;66.90;;;;;;1790134;78;21119;-74
2021/04/28 01:33:40;;;;;;;3.77;2.17;;;8.10;67.30;;;;;;1821520;77;21228;-74
2021/04/28 01:36:23;;;;;;;4.90;2.30;;;8.00;67.60;;;;;;1786967;78;21124;-73
2021/04/28 01:38:53;;;;;;;3.25;1.92;;;7.90;67.70;;;;;;1788729;78;21069;-73
2021/04/28 01:41:22;;;;;;;3.12;2.27;;;7.90;68.10;;;;;;1787438;78;22180;-74
2021/04/28 01:43:50;;;;;;;5.67;2.67;;;7.90;68.00;;;;;;1789008;78;21159;-74
2021/04/28 01:46:18;;;;;;;9.50;2.62;;;7.90;68.20;;;;;;1791716;78;21566;-74
2021/04/28 01:48:47;;;;;;;3.40;2.15;;;7.90;68.50;;;;;;1779513;79;21222;-74
2021/04/28 01:51:15;;;;;;;5.90;2.45;;;7.80;69.20;;;;;;1777108;79;21572;-74
2021/04/28 01:53:43;;;;;;;3.67;2.42;;;7.90;69.50;;;;;;1777222;79;21269;-74
2021/04/28 01:56:11;;;;;;;3.85;2.70;;;7.80;68.60;;;;;;1781347;79;21091;-74
2021/04/28 01:58:40;;;;;;;3.98;2.77;;;7.80;69.20;;;;;;1783115;79;21186;-74
2021/04/28 02:01:09;;;;;;;8.23;2.33;;;7.80;69.50;;;;;;1782715;79;21095;-74
2021/04/28 02:03:38;;;;;;;4.62;2.40;;;7.70;69.70;;;;;;1794320;78;21099;-74
2021/04/28 02:06:06;;;;;;;5.50;2.30;;;7.70;69.40;;;;;;1783978;79;21075;-74
2021/04/28 02:08:34;;;;;;;5.87;2.60;;;7.70;69.80;;;;;;1793014;78;21016;-74
2021/04/28 02:11:04;;;;;;;4.03;2.02;;;7.70;69.60;;;;;;1766009;80;21067;-74
2021/04/28 02:13:34;;;;;;;4.15;2.45;;;7.70;70.00;;;;;;1761991;80;21174;-74
2021/04/28 02:16:03;;;;;;;3.80;2.50;;;7.70;70.10;;;;;;1781383;79;21217;-74
2021/04/28 02:18:30;;;;;;;4.20;2.50;;;7.70;70.30;;;;;;1789186;78;21141;-75
2021/04/28 02:21:03;;;;;;;3.83;2.47;;;7.70;70.40;;;;;;1779543;79;21064;-74
2021/04/28 02:23:33;;;;;;;4.60;2.58;;;7.70;70.10;;;;;;1812926;76;21662;-77
2021/04/28 02:26:01;;;;;;;5.95;2.60;;;7.70;70.50;;;;;;1828947;77;21230;-77
2021/04/28 02:28:28;;;;;;;4.25;2.47;;;7.60;70.60;;;;;;1825357;77;22126;-77
2021/04/28 02:30:56;;;;;;;6.75;2.55;;;7.60;71.00;;;;;;1823470;77;21113;-77
2021/04/28 02:33:23;;;;;;;6.10;2.42;;;7.70;71.50;;;;;;1824884;77;21157;-76
2021/04/28 02:35:51;;;;;;;8.35;2.50;;;7.60;71.60;;;;;;1871512;75;21101;-76
2021/04/28 02:38:30;;;;;;;5.12;2.90;;;7.60;71.40;;;;;;1876951;75;21108;-76
2021/04/28 02:41:00;;;;;;;6.35;3.00;;;7.60;71.60;;;;;;1869980;75;21112;-76
2021/04/28 02:43:30;;;;;;;5.17;2.80;;;7.50;71.50;;;;;;1875427;75;21602;-78
2021/04/28 02:46:00;;;;;;;10.15;2.60;;;7.50;71.50;;;;;;1870205;75;21107;-78
2021/04/28 02:48:28;;;;;;;5.80;2.95;;;7.50;71.80;;;;;;1873119;75;21116;-76
2021/04/28 02:50:57;;;;;;;6.78;2.70;;;7.50;71.80;;;;;;1876168;75;21058;-77
2021/04/28 02:53:27;;;;;;;6.00;2.75;;;7.40;72.00;;;;;;1877996;74;21141;-77
2021/04/28 02:55:57;;;;;;;4.65;2.77;;;7.40;72.20;;;;;;1875145;75;21108;-77
2021/04/28 02:58:26;;;;;;;6.35;3.35;;;7.50;71.90;;;;;;1872850;75;21139;-77
2021/04/28 03:00:55;;;;;;;4.30;2.60;;;7.50;72.30;;;;;;1879027;75;21119;-77
2021/04/28 03:03:23;;;;;;;6.17;2.90;;;7.50;72.30;;;;;;1873723;75;21139;-77
2021/04/28 03:05:53;;;;;;;7.15;3.05;;;7.50;72.60;;;;;;1877718;75;21060;-77
2021/04/28 03:08:21;;;;;;;4.53;2.45;;;7.40;72.00;;;;;;1874268;75;21065;-77
2021/04/28 03:10:50;;;;;;;9.28;2.83;;;7.40;72.40;;;;;;1873783;75;21546;-77
2021/04/28 03:13:18;;;;;;;6.15;2.80;;;7.40;72.10;;;;;;1876538;75;21124;-77
2021/04/28 03:15:49;;;;;;;6.40;2.50;;;7.40;72.40;;;;;;1877108;75;21050;-77
2021/04/28 03:18:17;;;;;;;4.12;2.60;;;7.30;72.60;;;;;;1873956;75;21131;-77
2021/04/28 03:20:48;;;;;;;3.77;2.55;;;7.30;73.70;;;;;;1873046;75;21120;-77
2021/04/28 03:23:16;;;;;;;5.00;2.92;;;7.30;72.80;;;;;;1873190;75;21799;-77
2021/04/28 03:25:44;;;;;;;11.33;2.95;;;7.30;73.00;;;;;;1867446;75;21128;-77
2021/04/28 03:28:12;;;;;;;9.90;3.25;;;7.30;72.40;;;;;;1877470;75;21053;-77
2021/04/28 03:30:40;;;;;;;8.50;4.53;;;7.20;72.30;;;;;;1875949;75;21056;-78
2021/04/28 03:33:07;;;;;;;13.35;6.10;;;7.20;72.80;;;;;;1873743;75;21140;-77
2021/04/28 03:35:35;;;;;;;12.53;7.33;;;7.20;73.40;;;;;;1873743;75;21193;-77
2021/04/28 03:38:03;;;;;;;15.58;9.23;;;7.20;73.70;;;;;;1873704;75;21591;-78
2021/04/28 03:40:31;;;;;;;16.90;10.70;;;7.10;73.20;;;;;;1872744;75;21572;-78
2021/04/28 03:42:58;;;;;;;15.65;9.05;;;7.10;72.60;;;;;;1873976;75;21143;-78
2021/04/28 03:45:26;;;;;;;14.15;7.67;;;7.10;72.70;;;;;;1875085;75;21096;-78
2021/04/28 03:47:53;;;;;;;14.83;8.28;;;7.10;73.00;;;;;;1876294;75;21092;-78
2021/04/28 03:50:21;;;;;;;11.33;7.25;;;7.10;73.00;;;;;;1879713;74;21112;-78
2021/04/28 03:52:48;;;;;;;12.47;6.70;;;7.10;73.90;;;;;;1881851;74;21578;-78
2021/04/28 03:55:16;;;;;;;11.18;6.45;;;7.10;73.20;;;;;;1875572;75;21069;-78
2021/04/28 03:57:44;;;;;;;11.43;6.20;;;7.10;74.00;;;;;;1880038;75;21116;-78
2021/04/28 04:00:11;;;;;;;9.68;4.87;;;7.10;74.40;;;;;;1875631;75;21103;-78
2021/04/28 04:02:39;;;;;;;8.10;4.25;;;7.10;74.20;;;;;;1875743;75;21561;-78
2021/04/28 04:05:07;;;;;;;7.47;3.52;;;7.00;72.80;;;;;;1876770;75;21585;-78
2021/04/28 04:07:35;;;;;;;5.75;3.47;;;6.90;73.20;;;;;;1874476;75;21139;-78
2021/04/28 04:10:03;;;;;;;6.58;3.10;;;6.90;73.00;;;;;;1875909;75;21088;-78
2021/04/28 04:12:30;;;;;;;9.63;3.25;;;6.80;73.30;;;;;;1876347;75;21119;-78
2021/04/28 04:14:58;;;;;;;7.75;3.10;;;6.90;73.50;;;;;;1873747;75;21481;-78
2021/04/28 04:17:25;;;;;;;6.97;3.10;;;6.80;72.60;;;;;;1877433;75;21120;-78
2021/04/28 04:19:53;;;;;;;6.05;3.20;;;6.70;73.20;;;;;;1877246;75;21510;-78
2021/04/28 04:22:20;;;;;;;7.75;3.42;;;6.70;73.30;;;;;;1874873;75;21092;-77
2021/04/28 04:24:48;;;;;;;12.07;3.22;;;6.60;73.20;;;;;;1872786;75;21186;-78
2021/04/28 04:27:15;;;;;;;5.35;3.22;;;6.60;73.20;;;;;;1872376;75;21131;-78
2021/04/28 04:29:43;;;;;;;7.90;3.33;;;6.60;73.00;;;;;;1879280;75;21174;-77
2021/04/28 04:32:11;;;;;;;6.33;2.87;;;6.60;72.40;;;;;;1873523;75;21139;-77
2021/04/28 04:34:38;;;;;;;5.45;3.05;;;6.60;73.50;;;;;;1873702;75;21110;-77
2021/04/28 04:37:06;;;;;;;5.70;3.33;;;6.70;72.40;;;;;;1879083;75;21091;-78
2021/04/28 04:39:34;;;;;;;6.22;3.80;;;6.70;72.50;;;;;;1874137;75;21171;-77
2021/04/28 04:42:01;;;;;;;6.58;3.12;;;6.70;73.10;;;;;;1879995;75;21100;-77
2021/04/28 04:44:29;;;;;;;11.50;3.50;;;6.70;72.90;;;;;;1875986;75;21092;-76
2021/04/28 04:46:56;;;;;;;6.45;3.10;;;6.70;72.70;;;;;;1876239;75;21112;-76
2021/04/28 04:49:24;;;;;;;4.90;3.08;;;6.60;73.30;;;;;;1876762;75;21034;-78
2021/04/28 04:51:51;;;;;;;5.50;3.77;;;6.70;72.80;;;;;;1877839;75;21089;-77
2021/04/28 04:54:19;;;;;;;6.12;3.42;;;6.60;73.40;;;;;;1873550;75;21093;-77
2021/04/28 04:56:46;;;;;;;10.05;3.77;;;6.60;72.90;;;;;;1880836;75;21137;-77
2021/04/28 04:59:14;;;;;;;8.63;3.75;;;6.60;72.30;;;;;;1877268;75;21437;-77
2021/04/28 05:01:41;;;;;;;10.68;3.70;;;6.70;72.00;;;;;;1878420;75;21207;-77
2021/04/28 05:04:09;;;;;;;6.37;3.65;;;6.80;72.20;;;;;;1875340;75;21143;-76
2021/04/28 05:06:36;;;;;;;8.53;3.33;;;6.80;71.60;;;;;;1874884;75;21150;-77
2021/04/28 05:09:05;;;;;;;5.75;3.58;;;6.90;71.90;;;;;;1876505;75;21076;-77
2021/04/28 05:11:35;;;;;;;9.45;3.35;;;6.90;71.40;;;;;;1873605;75;21045;-76
2021/04/28 05:14:02;;;;;;;5.10;3.33;;;6.90;71.20;;;;;;1875776;75;21194;-77
2021/04/28 05:16:32;;;;;;;9.25;3.55;;;7.10;71.90;;;;;;1874840;75;21124;-76
2021/04/28 05:19:00;;;;;;;8.63;3.98;;;7.10;70.90;;;;;;1875060;75;22968;-76
2021/04/28 05:21:28;;;;;;;7.90;3.33;;;7.10;71.40;;;;;;1875248;75;21098;-76
2021/04/28 05:23:55;;;;;;;6.53;3.70;;;7.10;72.00;;;;;;1872814;74;21681;-77
2021/04/28 05:26:23;;;;;;;6.80;3.40;;;7.10;71.70;;;;;;1877338;75;21100;-77
2021/04/28 05:28:50;;;;;;;5.42;3.60;;;7.20;71.10;;;;;;1872603;75;21136;-76
2021/04/28 05:31:18;;;;;;;7.30;4.12;;;7.30;70.60;;;;;;1878073;75;21185;-80
2021/04/28 05:33:45;;;;;;;8.38;3.80;;;7.30;70.50;;;;;;1875431;75;21687;-76
2021/04/28 05:36:13;;;;;;;7.15;3.60;;;7.30;71.30;;;;;;1876142;75;21173;-76
2021/04/28 05:38:40;;;;;;;6.00;3.80;;;7.40;70.90;;;;;;1877547;75;21175;-76
2021/04/28 05:41:08;;;;;;;10.70;3.58;;;7.40;70.50;;;;;;1877275;75;21082;-79
2021/04/28 05:43:36;;;;;;;5.33;3.52;;;7.50;69.80;;;;;;1880048;75;21183;-76
2021/04/28 05:46:03;;;;;;;5.92;3.90;;;7.60;70.50;;;;;;1875510;75;21106;-77
2021/04/28 05:48:31;;;;;;;6.45;3.50;;;7.70;69.90;;;;;;1875544;75;21101;-77
2021/04/28 05:50:58;;;;;;;6.70;3.35;;;7.70;70.40;;;;;;1874431;75;21166;-76
2021/04/28 05:53:26;;;;;;;7.00;3.47;;;7.80;69.70;;;;;;1873326;75;21167;-76
2021/04/28 05:55:53;;;;;;;7.90;3.95;;;7.80;68.60;;;;;;1877955;75;21084;-77
2021/04/28 05:58:21;;;;;;;10.80;3.55;;;7.90;69.60;;;;;;1873595;75;21515;-76
2021/04/28 06:00:48;;;;;;;6.17;3.60;;;8.10;68.70;;;;;;1879266;74;21048;-77
2021/04/28 06:03:16;;;;;;;7.50;3.80;;;8.10;68.70;;;;;;1874527;75;21195;-77
2021/04/28 06:05:43;;;;;;;7.05;4.10;;;8.20;69.00;;;;;;1878833;75;21122;-74
2021/04/28 06:08:12;;;;;;;9.25;3.92;;;8.20;67.10;;;;;;1874027;75;21505;-75
2021/04/28 06:10:40;;;;;;;13.90;4.05;;;8.20;67.30;;;;;;1872305;75;21193;-76
2021/04/28 06:13:08;;;;;;;7.25;3.90;;;8.20;67.70;;;;;;1879495;75;21105;-74
2021/04/28 06:15:36;;;;;;;7.53;3.80;;;8.30;68.40;;;;;;1873611;75;21672;-75
2021/04/28 06:18:06;;;;;;;8.73;4.08;;;8.30;67.60;;;;;;1875925;75;21030;-74
2021/04/28 06:20:34;;;;;;;6.65;3.52;;;8.30;67.40;;;;;;1878244;75;21084;-76
2021/04/28 06:23:03;;;;;;;7.08;4.00;;;8.40;68.10;;;;;;1872342;75;21657;-75
2021/04/28 06:25:31;;;;;;;6.03;3.62;;;8.50;67.00;;;;;;1866271;75;21073;-78
2021/04/28 06:27:59;;;;;;;8.95;4.37;;;8.50;68.30;;;;;;1875955;75;21072;-78
2021/04/28 06:30:26;;;;;;;10.03;4.60;;;8.60;66.50;;;;;;1873465;75;21107;-76
2021/04/28 06:32:54;;;;;;;7.03;4.12;;;8.70;66.80;;;;;;1876957;74;21107;-77
2021/04/28 06:35:21;;;;;;;7.53;4.10;;;8.80;66.60;;;;;;1877676;75;21111;-75
2021/04/28 06:37:49;;;;;;;11.50;4.67;;;8.90;66.40;;;;;;1878865;75;21104;-74
2021/04/28 06:40:16;;;;;;;9.20;4.22;;;9.00;65.40;;;;;;1876648;75;21116;-75
2021/04/28 06:42:44;;;;;;;6.50;4.47;;;9.10;65.30;;;;;;1874228;75;21056;-75
2021/04/28 06:45:11;;;;;;;5.40;3.85;;;9.20;66.60;;;;;;1876880;75;21259;-76
2021/04/28 06:47:39;;;;;;;10.20;4.75;;;9.30;65.60;;;;;;1875583;75;21396;-76
2021/04/28 06:50:09;;;;;;;8.93;4.55;;;9.40;66.20;;;;;;1873747;75;21166;-75
2021/04/28 06:52:37;;;;;;;7.55;4.40;;;9.40;64.70;;;;;;1875169;75;21187;-75
2021/04/28 06:55:05;;;;;;;8.80;4.62;;;9.50;64.90;;;;;;1877330;75;21108;-77
2021/04/28 06:57:33;;;;;;;10.08;4.55;;;9.60;64.70;;;;;;1874312;75;21142;-76
2021/04/28 07:00:01;;;;;;;10.50;4.50;;;9.70;64.20;;;;;;1876456;75;21112;-75
2021/04/28 07:02:28;;;;;;;8.70;4.30;;;9.80;64.00;;;;;;1876515;75;21127;-76
2021/04/28 07:04:56;;;;;;;9.43;4.80;;;9.80;64.80;;;;;;1880224;75;21587;-75
2021/04/28 07:07:23;;;;;;;11.35;5.25;;;9.90;65.00;;;;;;1873663;75;21096;-75
2021/04/28 07:09:51;;;;;;;7.92;4.33;;;9.90;65.60;;;;;;1876789;75;21092;-76
2021/04/28 07:12:20;;;;;;;9.83;4.90;;;10.00;64.10;;;;;;1870368;75;21206;-76
2021/04/28 07:14:47;;;;;;;10.85;4.60;;;10.00;64.20;;;;;;1870146;75;21131;-76
2021/04/28 07:17:15;;;;;;;7.28;5.08;;;10.10;63.30;;;;;;1876254;75;21263;-76
2021/04/28 07:19:42;;;;;;;9.70;4.83;;;10.20;65.00;;;;;;1872977;75;21124;-76
2021/04/28 07:22:09;;;;;;;6.92;5.12;;;10.20;64.20;;;;;;1876487;75;21173;-76
2021/04/28 07:24:37;;;;;;;8.23;4.65;;;10.30;64.00;;;;;;1873005;75;21077;-76
2021/04/28 07:27:05;;;;;;;12.50;4.83;;;10.50;64.00;;;;;;1873463;75;21515;-75
2021/04/28 07:29:32;;;;;;;7.12;5.17;;;10.50;63.70;;;;;;1872612;75;22120;-76
2021/04/28 07:32:02;;;;;;;8.10;4.35;;;10.60;62.90;;;;;;1871487;75;21200;-76
2021/04/28 07:34:30;;;;;;;13.15;4.95;;;10.70;63.30;;;;;;1881127;75;21085;-76
2021/04/28 07:36:57;;;;;;;7.20;4.65;;;10.70;62.20;;;;;;1877263;74;21747;-76
2021/04/28 07:39:25;;;;;;;9.98;5.35;;;10.80;63.90;;;;;;1874069;75;21578;-76
2021/04/28 07:41:52;;;;;;;11.28;5.10;;;10.80;62.00;;;;;;1880270;75;21203;-76
2021/04/28 07:44:20;;;;;;;12.05;7.10;;;10.90;62.90;;;;;;1878721;75;21218;-76
2021/04/28 07:46:48;;;;;;;13.75;7.03;;;11.00;63.20;;;;;;1876007;75;21236;-76
2021/04/28 07:49:15;;;;;;;8.38;6.20;;;11.10;61.40;;;;;;1871237;75;21140;-76
2021/04/28 07:51:43;;;;;;;9.33;5.05;;;11.10;60.90;;;;;;1875262;75;21076;-78
2021/04/28 07:54:10;;;;;;;8.15;5.12;;;11.20;60.60;;;;;;1875410;75;21568;-76
2021/04/28 07:56:38;;;;;;;10.55;5.05;;;11.20;60.80;;;;;;1877726;75;21060;-77
2021/04/28 07:59:06;;;;;;;11.70;5.62;;;11.20;60.50;;;;;;1877974;75;21139;-78
2021/04/28 08:01:33;;;;;;;11.88;6.00;;;11.30;58.90;;;;;;1874317;75;21135;-77
2021/04/28 08:04:01;;;;;;;10.75;5.58;;;11.40;59.80;;;;;;1879241;74;21566;-75
2021/04/28 08:06:29;;;;;;;7.30;5.30;;;11.50;60.10;;;;;;1881200;74;21155;-78
2021/04/28 08:08:56;;;;;;;8.78;5.97;;;11.60;60.10;;;;;;1878162;75;21104;-77
2021/04/28 08:11:25;;;;;;;7.90;5.22;;;11.70;59.50;;;;;;1873452;75;21158;-77
2021/04/28 08:13:52;;;;;;;13.32;5.50;;;11.70;59.00;;;;;;1875333;75;21191;-76
2021/04/28 08:16:20;;;;;;;13.68;5.50;;;11.80;59.40;;;;;;1879123;74;21562;-76
2021/04/28 08:18:49;;;;;;;12.47;6.00;;;12.00;60.60;;;;;;1871149;75;21127;-76
2021/04/28 08:21:18;;;;;;;13.48;5.80;;;12.00;61.30;;;;;;1874845;75;21173;-77
2021/04/28 08:23:45;;;;;;;16.70;5.70;;;12.10;57.40;;;;;;1873681;75;21084;-77
2021/04/28 08:26:15;;;;;;;12.15;5.62;;;12.10;57.60;;;;;;1872317;75;21060;-76
2021/04/28 08:28:45;;;;;;;10.40;5.45;;;12.20;58.60;;;;;;1876771;75;21539;-78
2021/04/28 08:31:14;;;;;;;13.20;5.97;;;12.40;61.70;;;;;;1876171;75;21088;-78
2021/04/28 08:33:43;;;;;;;10.75;5.55;;;12.60;61.50;;;;;;1875021;75;21088;-79
2021/04/28 08:36:11;;;;;;;9.78;5.75;;;12.60;57.90;;;;;;1876764;75;21084;-79
2021/04/28 08:38:39;;;;;;;9.78;5.53;;;12.70;59.20;;;;;;1876844;75;21242;-77
2021/04/28 08:41:09;;;;;;;14.93;5.42;;;12.70;57.60;;;;;;1874882;75;21185;-78
2021/04/28 08:43:37;;;;;;;9.58;6.05;;;12.80;59.70;;;;;;1875564;74;21162;-78
2021/04/28 08:46:06;;;;;;;14.47;5.50;;;12.90;59.50;;;;;;1877969;75;21189;-78
2021/04/28 08:48:34;;;;;;;12.68;5.45;;;13.00;59.00;;;;;;1875242;75;21181;-80
2021/04/28 08:51:04;;;;;;;10.58;6.45;;;13.20;59.10;;;;;;1875603;75;21084;-77
2021/04/28 08:53:34;;;;;;;12.20;6.35;;;13.30;59.10;;;;;;1874533;75;21092;-79
2021/04/28 08:56:08;;;;;;;10.13;6.00;;;13.40;57.60;;;;;;1879061;75;21096;-78
2021/04/28 08:58:37;;;;;;;8.28;6.08;;;13.50;57.40;;;;;;1885505;75;21556;-77
2021/04/28 09:01:07;;;;;;;10.88;5.90;;;13.50;58.00;;;;;;1866356;75;21646;-78
2021/04/28 09:03:43;;;;;;;11.08;7.25;;;13.60;59.80;;;;;;1875261;75;21132;-77
2021/04/28 09:06:35;;;;;;;12.95;7.72;;;13.70;58.20;;;;;;1872248;75;21653;-77
2021/04/28 09:09:07;;;;;;;10.30;7.00;;;13.90;60.00;;;;;;1878065;75;21152;-76
2021/04/28 09:11:35;;;;;;;;;;;13.90;57.70;;;;;;1876634;73;21069;-78
2021/04/28 09:14:21;;;;;;;10.88;6.45;;;14.10;59.50;;;;;;1870759;75;20211;-77
2021/04/28 09:16:54;;;;;;;13.13;6.12;;;14.20;57.10;;;;;;1885563;75;21096;-77
2021/04/28 09:19:32;;;;;;;8.78;6.10;;;14.30;57.20;;;;;;1882417;74;21186;-77
2021/04/28 09:22:01;;;;;;;13.30;6.95;;;14.40;57.70;;;;;;1873287;75;21190;-76
2021/04/28 09:24:32;;;;;;;12.23;6.03;;;14.60;54.70;;;;;;1875388;73;21088;-75
2021/04/28 09:27:00;;;;;;;11.05;6.55;;;14.60;55.60;;;;;;1874958;75;21119;-76
2021/04/28 09:29:31;;;;;;;14.47;6.20;;;14.70;55.70;;;;;;1878376;75;21037;-76
2021/04/28 09:32:06;;;;;;;7.78;5.87;;;14.80;55.60;;;;;;1879843;75;21087;-76
2021/04/28 09:34:41;;;;;;;8.23;5.80;;;15.10;57.20;;;;;;1878949;75;21036;-75
2021/04/28 09:37:17;;;;;;;12.82;6.72;;;15.20;56.00;;;;;;1878125;75;21608;-75
2021/04/28 09:39:58;;;;;;;14.43;6.72;;;15.40;53.70;;;;;;1871592;74;21177;-77
2021/04/28 09:42:21;;;;;;;14.25;7.80;;;15.40;55.90;;;;;;1878945;75;21229;-76
2021/04/28 09:44:49;;;;;;;12.75;6.53;;;15.50;56.30;;;;;;1873218;75;21192;-75
2021/04/28 09:47:20;;;;;;;13.80;6.20;;;15.60;53.80;;;;;;1880393;75;21057;-76
2021/04/28 09:49:59;;;;;;;13.10;6.37;;;15.80;54.60;;;;;;1870417;75;21111;-76
2021/04/28 09:52:37;;;;;;;18.35;7.65;;;16.00;53.70;;;;;;1870793;75;21140;-76
2021/04/28 09:55:13;;;;;;;13.60;7.08;;;16.10;50.20;;;;;;1880221;75;21190;-75
2021/04/28 09:57:43;;;;;;;12.80;6.80;;;16.30;52.00;;;;;;1875147;75;21084;-77
2021/04/28 10:00:20;;;;;;;13.85;6.65;;;16.40;52.80;;;;;;1872839;75;21220;-78
2021/04/28 10:02:55;;;;;;;21.55;7.10;;;16.40;48.80;;;;;;1879599;75;21576;-80
2021/04/28 10:05:35;;;;;;;9.03;6.45;;;16.50;49.20;;;;;;1880631;75;21145;-81
2021/04/28 10:08:23;;;;;;;13.68;7.10;;;16.70;49.80;;;;;;1879486;75;21052;-80
2021/04/28 10:10:47;;;;;;;11.25;7.25;;;16.80;50.40;;;;;;1877297;75;21111;-81
2021/04/28 10:13:16;;;;;;;13.32;7.87;;;16.70;47.70;;;;;;1872739;74;21142;-81
2021/04/28 10:15:44;;;;;;;11.70;7.20;;;16.80;49.50;;;;;;1878167;75;21092;-82
2021/04/28 10:18:13;;;;;;;10.48;6.58;;;17.10;51.30;;;;;;1881432;75;21096;-82
2021/04/28 10:20:44;;;;;;;17.12;6.90;;;17.20;50.00;;;;;;1877922;75;21120;-78
2021/04/28 10:23:14;;;;;;;12.28;7.45;;;17.20;48.50;;;;;;1878358;75;21159;-78
2021/04/28 10:25:43;;;;;;;13.03;7.40;;;17.20;47.20;;;;;;1875853;75;21154;-79
2021/04/28 10:28:11;;;;;;;13.08;6.90;;;17.20;48.00;;;;;;1874082;75;21202;-79
2021/04/28 10:30:44;;;;;;;15.45;7.78;;;17.40;51.40;;;;;;1871233;75;21037;-79
2021/04/28 10:33:21;;;;;;;15.68;7.30;;;17.50;49.40;;;;;;1872343;75;21640;-79
2021/04/28 10:35:50;;;;;;;13.48;7.20;;;17.80;51.40;;;;;;1879350;74;21181;-79
2021/04/28 10:38:23;;;;;;;11.05;6.65;;;18.40;50.10;;;;;;1875709;75;21123;-79
2021/04/28 10:40:51;;;;;;;15.98;7.33;;;18.60;45.70;;;;;;1872908;75;21268;-79
2021/04/28 10:43:20;;;;;;;12.80;6.75;;;18.60;47.50;;;;;;1874495;75;21674;-77
2021/04/28 10:45:49;;;;;;;11.10;7.03;;;18.60;48.00;;;;;;1874977;75;21061;-76
2021/04/28 10:48:21;;;;;;;11.48;6.90;;;19.00;47.90;;;;;;1873846;75;21092;-76
2021/04/28 10:50:48;;;;;;;12.20;7.20;;;19.00;47.90;;;;;;1880810;75;21105;-76
2021/04/28 10:53:26;;;;;;;9.80;6.28;;;19.30;44.80;;;;;;1877545;75;21163;-81
2021/04/28 10:56:15;;;;;;;10.40;6.70;;;20.00;45.50;;;;;;1876153;75;21162;-77
2021/04/28 10:58:42;;;;;;;12.35;6.67;;;20.70;44.20;;;;;;1866808;75;22592;-77
2021/04/28 11:01:16;;;;;;;15.08;6.12;;;21.50;42.30;;;;;;1838620;76;21143;-76
2021/04/28 11:03:46;;;;;;;7.25;6.10;;;21.80;43.00;;;;;;1835225;76;21147;-75
2021/04/28 11:06:23;;;;;;;10.68;6.53;;;22.40;43.00;;;;;;1831663;78;21080;-76
2021/04/28 11:09:10;;;;;;;12.45;6.85;;;23.10;40.80;;;;;;1830698;76;21238;-76
2021/04/28 11:11:45;;;;;;;8.83;6.22;;;23.70;38.50;;;;;;1831317;76;21158;-77
2021/04/28 11:14:23;;;;;;;8.93;6.28;;;24.00;41.00;;;;;;1794923;77;22193;-77
2021/04/28 11:16:51;;;;;;;12.25;6.42;;;24.90;38.80;;;;;;1831138;76;21730;-80
2021/04/28 11:19:27;;;;;;;7.37;5.55;;;25.30;40.00;;;;;;1832520;76;21156;-80
2021/04/28 11:22:15;;;;;;;9.93;6.37;;;26.30;39.10;;;;;;1834707;77;21180;-80
2021/04/28 11:25:03;;;;;;;8.83;5.87;;;26.90;35.40;;;;;;1840474;76;22107;-80
2021/04/28 11:28:04;;;;;;;8.28;5.65;;;27.20;35.20;;;;;;1833238;77;21129;-80
2021/04/28 11:30:45;;;;;;;12.35;6.28;;;27.80;36.60;;;;;;1836890;77;21425;-81
2021/04/28 11:33:30;;;;;;;9.10;6.80;;;27.50;34.90;;;;;;1838761;76;21113;-79
2021/04/28 11:36:00;;;;;;;13.10;5.75;;;26.70;32.70;;;;;;1842742;77;21224;-79
2021/04/28 11:38:33;;;;;;;14.43;7.15;;;26.60;36.60;;;;;;1841138;77;21743;-80
2021/04/28 11:41:10;;;;;;;8.25;6.05;;;26.60;34.40;;;;;;1838005;76;21102;-80
2021/04/28 11:43:57;;;;;;;10.00;5.95;;;26.40;34.80;;;;;;1836183;76;21698;-80
2021/04/28 11:46:29;;;;;;;8.83;5.90;;;27.00;34.20;;;;;;1839292;76;21186;-80
2021/04/28 11:48:59;;;;;;;10.10;8.50;;;27.40;35.90;;;;;;1838993;77;21061;-80
2021/04/28 11:51:35;;;;;;;13.93;6.78;;;27.40;35.70;;;;;;1840172;76;21062;-79
2021/04/28 11:54:06;;;;;;;15.28;5.72;;;27.10;35.60;;;;;;1839620;76;21141;-80
2021/04/28 11:56:46;;;;;;;10.00;6.45;;;27.50;33.90;;;;;;1841139;76;21097;-81
2021/04/28 11:59:21;;;;;;;11.12;6.30;;;27.50;32.40;;;;;;1835289;77;21042;-80
2021/04/28 12:01:57;;;;;;;11.97;6.47;;;27.60;34.20;;;;;;1838971;77;21160;-80
2021/04/28 12:04:33;;;;;;;9.83;6.40;;;26.90;34.40;;;;;;1832014;77;21195;-80
2021/04/28 12:07:01;;;;;;;8.70;6.62;;;27.20;32.60;;;;;;1840509;76;21662;-80
2021/04/28 12:09:40;;;;;;;12.47;6.92;;;27.30;33.40;;;;;;1840991;76;21160;-79
2021/04/28 12:12:28;;;;;;;14.30;6.53;;;27.40;33.70;;;;;;1838109;76;21105;-80
2021/04/28 12:15:08;;;;;;;12.05;7.17;;;27.60;34.80;;;;;;1835131;76;21125;-79
2021/04/28 12:17:40;;;;;;;10.25;7.08;;;27.30;34.50;;;;;;1837742;76;21081;-79
2021/04/28 12:20:16;;;;;;;13.15;6.85;;;27.10;32.60;;;;;;1838283;76;21221;-81
2021/04/28 12:22:44;;;;;;;9.13;7.15;;;26.60;33.80;;;;;;1844809;76;21202;-81
2021/04/28 12:25:14;;;;;;;10.48;6.62;;;26.40;32.10;;;;;;1835841;76;21105;-80
2021/04/28 12:27:43;;;;;;;8.05;5.92;;;26.70;33.40;;;;;;1837108;76;21110;-81
2021/04/28 12:30:14;;;;;;;6.97;5.62;;;27.20;34.40;;;;;;1840427;76;21126;-84
2021/04/28 12:32:47;;;;;;;7.70;5.72;;;27.00;34.90;;;;;;1837585;76;21818;-84
2021/04/28 12:35:18;;;;;;;9.50;6.40;;;27.60;35.10;;;;;;1833227;76;21130;-82
2021/04/28 12:38:01;;;;;;;9.45;6.37;;;28.30;31.90;;;;;;1834207;76;21169;-82
2021/04/28 12:40:37;;;;;;;11.60;6.92;;;28.30;33.10;;;;;;1818038;77;21195;-81
2021/04/28 12:43:07;;;;;;;9.78;6.20;;;27.00;33.60;;;;;;1840115;76;21507;-82
2021/04/28 12:45:35;;;;;;;9.10;6.05;;;27.40;33.70;;;;;;1837835;76;21618;-82
2021/04/28 12:48:20;;;;;;;10.48;5.22;;;28.40;34.40;;;;;;1834652;76;21087;-80
2021/04/28 12:50:50;;;;;;;9.55;4.85;;;29.30;31.50;;;;;;1839211;76;21132;-81
2021/04/28 12:53:20;;;;;;;10.15;6.10;;;29.40;32.00;;;;;;1841615;76;21211;-81
2021/04/28 12:55:50;;;;;;;13.85;7.08;;;29.60;30.00;;;;;;1836198;76;21223;-79
2021/04/28 12:58:22;;;;;;;9.63;6.25;;;29.30;29.70;;;;;;1839728;76;21074;-82
2021/04/28 13:00:52;;;;;;;12.58;5.70;;;29.60;28.80;;;;;;1840497;76;21175;-82
2021/04/28 13:03:29;;;;;;;7.47;5.47;;;29.20;28.70;;;;;;1833420;76;21203;-82